Terminal Aerodrome Forecast
Issued by NWS St Louis, MO

Home | Current Version | Previous Version | Text Only | Print | Product List | Glossary On
Versions: 1 2 3 4 5 6 7 8 9 10 11 12 13 14 15 16 17 18 19 20 21 22 23 24 25 26 27 28 29 30 31
000
FTUS43 KLSX 021123
TAFSTL
TAF
KSTL 021123Z 0212/0318 02007KT P6SM OVC007
      TEMPO 0212/0214 5SM -SHRA OVC015
     FM021600 01008KT P6SM OVC010
     FM022000 36008KT P6SM BKN035
     FM030100 35005KT P6SM SCT035 BKN120
     FM031000 01005KT P6SM BKN020=

USA.gov is the U.S. government's official web portal to all federal, state and local government web resources and services.